sensor_id;sensor_type;location;lat;lon;timestamp;P1;durP1;ratioP1;P2;durP2;ratioP2
69207;SDS011;70114;47.690;8.898;2023-11-18T00:00:06;6.07;;;1.70;;
69207;SDS011;70114;47.690;8.898;2023-11-18T00:02:44;6.10;;;1.67;;
69207;SDS011;70114;47.690;8.898;2023-11-18T00:05:18;6.47;;;1.70;;
69207;SDS011;70114;47.690;8.898;2023-11-18T00:07:49;6.40;;;1.83;;
69207;SDS011;70114;47.690;8.898;2023-11-18T00:10:18;5.97;;;1.50;;
69207;SDS011;70114;47.690;8.898;2023-11-18T00:12:46;6.75;;;1.60;;
69207;SDS011;70114;47.690;8.898;2023-11-18T00:15:28;6.47;;;1.77;;
69207;SDS011;70114;47.690;8.898;2023-11-18T00:17:53;7.30;;;1.80;;
69207;SDS011;70114;47.690;8.898;2023-11-18T00:20:21;6.57;;;1.60;;
69207;SDS011;70114;47.690;8.898;2023-11-18T00:22:57;6.35;;;1.63;;
69207;SDS011;70114;47.690;8.898;2023-11-18T00:25:30;6.37;;;1.60;;
69207;SDS011;70114;47.690;8.898;2023-11-18T00:27:56;6.20;;;1.75;;
69207;SDS011;70114;47.690;8.898;2023-11-18T00:30:31;5.72;;;1.40;;
69207;SDS011;70114;47.690;8.898;2023-11-18T00:32:59;5.07;;;1.30;;
69207;SDS011;70114;47.690;8.898;2023-11-18T00:35:26;5.20;;;1.17;;
69207;SDS011;70114;47.690;8.898;2023-11-18T00:38:02;5.57;;;1.30;;
69207;SDS011;70114;47.690;8.898;2023-11-18T00:40:30;5.55;;;1.30;;
69207;SDS011;70114;47.690;8.898;2023-11-18T00:43:07;5.75;;;1.40;;
69207;SDS011;70114;47.690;8.898;2023-11-18T00:45:36;5.90;;;1.30;;
69207;SDS011;70114;47.690;8.898;2023-11-18T00:48:09;6.45;;;1.50;;
69207;SDS011;70114;47.690;8.898;2023-11-18T00:50:35;5.97;;;1.40;;
69207;SDS011;70114;47.690;8.898;2023-11-18T00:53:15;7.25;;;1.63;;
69207;SDS011;70114;47.690;8.898;2023-11-18T00:55:40;9.68;;;2.50;;
69207;SDS011;70114;47.690;8.898;2023-11-18T00:58:13;8.37;;;2.53;;
69207;SDS011;70114;47.690;8.898;2023-11-18T01:00:46;7.15;;;2.17;;
69207;SDS011;70114;47.690;8.898;2023-11-18T01:03:14;7.35;;;2.10;;
69207;SDS011;70114;47.690;8.898;2023-11-18T01:05:49;6.63;;;2.00;;
69207;SDS011;70114;47.690;8.898;2023-11-18T01:08:17;7.13;;;1.83;;
69207;SDS011;70114;47.690;8.898;2023-11-18T01:10:48;7.00;;;1.90;;
69207;SDS011;70114;47.690;8.898;2023-11-18T01:13:20;6.07;;;1.80;;
69207;SDS011;70114;47.690;8.898;2023-11-18T01:15:50;7.13;;;1.90;;
69207;SDS011;70114;47.690;8.898;2023-11-18T01:18:23;7.47;;;2.03;;
69207;SDS011;70114;47.690;8.898;2023-11-18T01:20:56;6.60;;;2.10;;
69207;SDS011;70114;47.690;8.898;2023-11-18T01:23:27;6.40;;;1.95;;
69207;SDS011;70114;47.690;8.898;2023-11-18T01:25:59;8.20;;;2.40;;
69207;SDS011;70114;47.690;8.898;2023-11-18T01:28:27;7.80;;;2.38;;
69207;SDS011;70114;47.690;8.898;2023-11-18T01:31:03;7.53;;;2.30;;
69207;SDS011;70114;47.690;8.898;2023-11-18T01:33:32;7.03;;;1.90;;
69207;SDS011;70114;47.690;8.898;2023-11-18T01:36:05;8.63;;;2.45;;
69207;SDS011;70114;47.690;8.898;2023-11-18T01:38:36;9.15;;;2.20;;
69207;SDS011;70114;47.690;8.898;2023-11-18T01:41:05;7.20;;;1.92;;
69207;SDS011;70114;47.690;8.898;2023-11-18T01:43:39;7.75;;;2.25;;
69207;SDS011;70114;47.690;8.898;2023-11-18T01:46:10;7.03;;;2.40;;
69207;SDS011;70114;47.690;8.898;2023-11-18T01:48:39;7.10;;;2.30;;
69207;SDS011;70114;47.690;8.898;2023-11-18T01:51:11;7.38;;;2.20;;
69207;SDS011;70114;47.690;8.898;2023-11-18T01:53:41;7.28;;;1.90;;
69207;SDS011;70114;47.690;8.898;2023-11-18T01:56:11;8.18;;;2.30;;
69207;SDS011;70114;47.690;8.898;2023-11-18T01:58:46;7.70;;;2.20;;
69207;SDS011;70114;47.690;8.898;2023-11-18T02:01:14;7.40;;;2.40;;
69207;SDS011;70114;47.690;8.898;2023-11-18T02:04:04;6.75;;;2.05;;
69207;SDS011;70114;47.690;8.898;2023-11-18T02:06:32;6.80;;;1.95;;
69207;SDS011;70114;47.690;8.898;2023-11-18T02:09:05;8.30;;;2.27;;
69207;SDS011;70114;47.690;8.898;2023-11-18T02:11:39;7.40;;;2.10;;
69207;SDS011;70114;47.690;8.898;2023-11-18T02:14:13;8.30;;;2.20;;
69207;SDS011;70114;47.690;8.898;2023-11-18T02:16:42;8.10;;;2.22;;
69207;SDS011;70114;47.690;8.898;2023-11-18T02:19:14;7.13;;;1.90;;
69207;SDS011;70114;47.690;8.898;2023-11-18T02:21:57;7.95;;;2.10;;
69207;SDS011;70114;47.690;8.898;2023-11-18T02:24:27;7.00;;;2.03;;
69207;SDS011;70114;47.690;8.898;2023-11-18T02:27:01;7.32;;;2.00;;
69207;SDS011;70114;47.690;8.898;2023-11-18T02:29:28;8.00;;;1.83;;
69207;SDS011;70114;47.690;8.898;2023-11-18T02:32:03;8.07;;;2.00;;
69207;SDS011;70114;47.690;8.898;2023-11-18T02:38:22;6.20;;;1.80;;
69207;SDS011;70114;47.690;8.898;2023-11-18T02:41:06;7.45;;;2.03;;
69207;SDS011;70114;47.690;8.898;2023-11-18T02:43:39;7.30;;;1.90;;
69207;SDS011;70114;47.690;8.898;2023-11-18T02:46:08;6.93;;;2.00;;
69207;SDS011;70114;47.690;8.898;2023-11-18T02:48:42;7.20;;;1.75;;
69207;SDS011;70114;47.690;8.898;2023-11-18T02:51:11;6.80;;;1.85;;
69207;SDS011;70114;47.690;8.898;2023-11-18T02:53:39;6.78;;;1.80;;
69207;SDS011;70114;47.690;8.898;2023-11-18T02:56:13;8.45;;;1.88;;
69207;SDS011;70114;47.690;8.898;2023-11-18T02:58:47;6.00;;;1.60;;
69207;SDS011;70114;47.690;8.898;2023-11-18T03:01:13;6.47;;;1.30;;
69207;SDS011;70114;47.690;8.898;2023-11-18T03:03:46;5.55;;;1.30;;
69207;SDS011;70114;47.690;8.898;2023-11-18T03:06:19;7.55;;;1.67;;
69207;SDS011;70114;47.690;8.898;2023-11-18T03:08:48;5.32;;;1.20;;
69207;SDS011;70114;47.690;8.898;2023-11-18T03:11:23;7.47;;;1.20;;
69207;SDS011;70114;47.690;8.898;2023-11-18T03:13:51;6.38;;;1.33;;
69207;SDS011;70114;47.690;8.898;2023-11-18T03:16:17;6.28;;;1.45;;
69207;SDS011;70114;47.690;8.898;2023-11-18T03:18:57;6.40;;;1.17;;
69207;SDS011;70114;47.690;8.898;2023-11-18T03:21:27;6.22;;;1.30;;
69207;SDS011;70114;47.690;8.898;2023-11-18T03:24:00;6.53;;;1.40;;
69207;SDS011;70114;47.690;8.898;2023-11-18T03:26:28;9.52;;;3.53;;
69207;SDS011;70114;47.690;8.898;2023-11-18T03:28:59;7.40;;;1.88;;
69207;SDS011;70114;47.690;8.898;2023-11-18T03:31:24;7.60;;;1.52;;
69207;SDS011;70114;47.690;8.898;2023-11-18T03:33:59;5.55;;;1.00;;
69207;SDS011;70114;47.690;8.898;2023-11-18T03:36:35;5.67;;;1.00;;
69207;SDS011;70114;47.690;8.898;2023-11-18T03:39:06;6.10;;;1.30;;
69207;SDS011;70114;47.690;8.898;2023-11-18T03:41:34;5.90;;;1.25;;
69207;SDS011;70114;47.690;8.898;2023-11-18T03:43:59;5.38;;;1.10;;
69207;SDS011;70114;47.690;8.898;2023-11-18T03:46:25;5.43;;;1.20;;
69207;SDS011;70114;47.690;8.898;2023-11-18T03:48:50;5.73;;;1.20;;
69207;SDS011;70114;47.690;8.898;2023-11-18T03:51:27;6.78;;;1.40;;
69207;SDS011;70114;47.690;8.898;2023-11-18T03:54:02;8.43;;;1.10;;
69207;SDS011;70114;47.690;8.898;2023-11-18T03:56:30;5.80;;;1.40;;
69207;SDS011;70114;47.690;8.898;2023-11-18T03:59:02;7.13;;;1.83;;
69207;SDS011;70114;47.690;8.898;2023-11-18T04:01:32;6.10;;;1.67;;
69207;SDS011;70114;47.690;8.898;2023-11-18T04:04:05;6.97;;;1.50;;
69207;SDS011;70114;47.690;8.898;2023-11-18T04:06:33;6.45;;;1.50;;
69207;SDS011;70114;47.690;8.898;2023-11-18T04:08:59;6.00;;;1.60;;
69207;SDS011;70114;47.690;8.898;2023-11-18T04:11:37;9.13;;;2.50;;
69207;SDS011;70114;47.690;8.898;2023-11-18T04:14:09;6.10;;;1.57;;
69207;SDS011;70114;47.690;8.898;2023-11-18T04:16:38;9.77;;;2.88;;
69207;SDS011;70114;47.690;8.898;2023-11-18T04:19:04;6.40;;;1.60;;
69207;SDS011;70114;47.690;8.898;2023-11-18T04:21:41;6.70;;;1.48;;
69207;SDS011;70114;47.690;8.898;2023-11-18T04:24:07;5.80;;;1.48;;
69207;SDS011;70114;47.690;8.898;2023-11-18T04:26:47;5.10;;;1.13;;
69207;SDS011;70114;47.690;8.898;2023-11-18T04:29:17;4.32;;;1.10;;
69207;SDS011;70114;47.690;8.898;2023-11-18T04:31:48;5.35;;;1.00;;
69207;SDS011;70114;47.690;8.898;2023-11-18T04:34:16;5.70;;;1.00;;
69207;SDS011;70114;47.690;8.898;2023-11-18T04:36:51;4.90;;;0.90;;
69207;SDS011;70114;47.690;8.898;2023-11-18T04:39:20;6.27;;;1.00;;
69207;SDS011;70114;47.690;8.898;2023-11-18T04:41:54;6.03;;;1.02;;
69207;SDS011;70114;47.690;8.898;2023-11-18T04:44:24;5.97;;;1.00;;
69207;SDS011;70114;47.690;8.898;2023-11-18T04:46:57;5.78;;;1.15;;
69207;SDS011;70114;47.690;8.898;2023-11-18T04:49:28;5.13;;;1.10;;
69207;SDS011;70114;47.690;8.898;2023-11-18T04:52:00;6.10;;;1.15;;
69207;SDS011;70114;47.690;8.898;2023-11-18T04:54:28;5.50;;;1.10;;
69207;SDS011;70114;47.690;8.898;2023-11-18T04:57:02;5.73;;;1.17;;
69207;SDS011;70114;47.690;8.898;2023-11-18T04:59:30;5.65;;;1.27;;
69207;SDS011;70114;47.690;8.898;2023-11-18T05:02:03;5.22;;;1.20;;
69207;SDS011;70114;47.690;8.898;2023-11-18T05:04:32;5.07;;;1.05;;
69207;SDS011;70114;47.690;8.898;2023-11-18T05:07:07;4.47;;;0.90;;
69207;SDS011;70114;47.690;8.898;2023-11-18T05:09:35;5.53;;;1.20;;
69207;SDS011;70114;47.690;8.898;2023-11-18T05:12:04;5.57;;;0.93;;
69207;SDS011;70114;47.690;8.898;2023-11-18T05:14:40;5.97;;;0.80;;
69207;SDS011;70114;47.690;8.898;2023-11-18T05:17:10;6.38;;;0.82;;
69207;SDS011;70114;47.690;8.898;2023-11-18T05:19:42;4.30;;;0.68;;
69207;SDS011;70114;47.690;8.898;2023-11-18T05:22:16;5.17;;;0.80;;
69207;SDS011;70114;47.690;8.898;2023-11-18T05:24:45;5.68;;;1.00;;
69207;SDS011;70114;47.690;8.898;2023-11-18T05:27:13;4.82;;;0.75;;
69207;SDS011;70114;47.690;8.898;2023-11-18T05:29:51;7.03;;;1.17;;
69207;SDS011;70114;47.690;8.898;2023-11-18T05:32:22;6.25;;;1.20;;
69207;SDS011;70114;47.690;8.898;2023-11-18T05:34:51;7.33;;;1.30;;
69207;SDS011;70114;47.690;8.898;2023-11-18T05:37:19;5.57;;;0.95;;
69207;SDS011;70114;47.690;8.898;2023-11-18T05:39:52;5.88;;;1.00;;
69207;SDS011;70114;47.690;8.898;2023-11-18T05:42:26;5.55;;;1.10;;
69207;SDS011;70114;47.690;8.898;2023-11-18T05:44:55;5.45;;;1.05;;
69207;SDS011;70114;47.690;8.898;2023-11-18T05:47:24;5.80;;;1.10;;
69207;SDS011;70114;47.690;8.898;2023-11-18T05:49:53;5.25;;;0.80;;
69207;SDS011;70114;47.690;8.898;2023-11-18T05:52:29;5.20;;;0.90;;
69207;SDS011;70114;47.690;8.898;2023-11-18T05:54:57;6.10;;;1.05;;
69207;SDS011;70114;47.690;8.898;2023-11-18T05:57:26;5.38;;;1.10;;
69207;SDS011;70114;47.690;8.898;2023-11-18T06:00:04;5.07;;;0.90;;
69207;SDS011;70114;47.690;8.898;2023-11-18T06:02:33;5.25;;;0.90;;
69207;SDS011;70114;47.690;8.898;2023-11-18T06:05:03;5.35;;;0.95;;
69207;SDS011;70114;47.690;8.898;2023-11-18T06:07:29;5.32;;;0.80;;
69207;SDS011;70114;47.690;8.898;2023-11-18T06:10:04;5.65;;;1.00;;
69207;SDS011;70114;47.690;8.898;2023-11-18T06:12:30;4.30;;;0.80;;
69207;SDS011;70114;47.690;8.898;2023-11-18T06:14:56;5.40;;;1.00;;
69207;SDS011;70114;47.690;8.898;2023-11-18T06:17:25;6.40;;;1.00;;
69207;SDS011;70114;47.690;8.898;2023-11-18T06:19:55;5.97;;;1.23;;
69207;SDS011;70114;47.690;8.898;2023-11-18T06:22:23;5.77;;;1.10;;
69207;SDS011;70114;47.690;8.898;2023-11-18T06:24:51;5.35;;;0.90;;
69207;SDS011;70114;47.690;8.898;2023-11-18T06:27:17;5.45;;;1.05;;
69207;SDS011;70114;47.690;8.898;2023-11-18T06:29:48;6.25;;;1.05;;
69207;SDS011;70114;47.690;8.898;2023-11-18T06:32:14;5.35;;;0.90;;
69207;SDS011;70114;47.690;8.898;2023-11-18T06:34:42;5.37;;;0.90;;
69207;SDS011;70114;47.690;8.898;2023-11-18T06:37:15;6.88;;;1.23;;
69207;SDS011;70114;47.690;8.898;2023-11-18T06:39:55;6.40;;;1.40;;
69207;SDS011;70114;47.690;8.898;2023-11-18T06:42:20;7.28;;;1.42;;
69207;SDS011;70114;47.690;8.898;2023-11-18T06:44:51;7.70;;;1.88;;
69207;SDS011;70114;47.690;8.898;2023-11-18T06:47:17;7.40;;;2.40;;
69207;SDS011;70114;47.690;8.898;2023-11-18T06:49:44;7.78;;;2.55;;
69207;SDS011;70114;47.690;8.898;2023-11-18T06:52:12;8.52;;;1.90;;
69207;SDS011;70114;47.690;8.898;2023-11-18T06:54:40;7.10;;;1.80;;
69207;SDS011;70114;47.690;8.898;2023-11-18T06:57:09;7.13;;;1.90;;
69207;SDS011;70114;47.690;8.898;2023-11-18T06:59:37;7.35;;;2.25;;
69207;SDS011;70114;47.690;8.898;2023-11-18T07:02:03;7.40;;;1.90;;
69207;SDS011;70114;47.690;8.898;2023-11-18T07:04:33;6.68;;;1.70;;
69207;SDS011;70114;47.690;8.898;2023-11-18T07:07:06;5.97;;;1.52;;
69207;SDS011;70114;47.690;8.898;2023-11-18T07:09:36;7.17;;;2.00;;
69207;SDS011;70114;47.690;8.898;2023-11-18T07:12:09;7.90;;;1.70;;
69207;SDS011;70114;47.690;8.898;2023-11-18T07:14:37;6.55;;;1.77;;
69207;SDS011;70114;47.690;8.898;2023-11-18T07:17:02;8.50;;;2.00;;
69207;SDS011;70114;47.690;8.898;2023-11-18T07:19:30;7.55;;;2.17;;
69207;SDS011;70114;47.690;8.898;2023-11-18T07:21:58;8.73;;;2.63;;
69207;SDS011;70114;47.690;8.898;2023-11-18T07:24:31;8.02;;;2.30;;
69207;SDS011;70114;47.690;8.898;2023-11-18T07:27:06;8.52;;;2.15;;
69207;SDS011;70114;47.690;8.898;2023-11-18T07:29:31;6.40;;;1.77;;
69207;SDS011;70114;47.690;8.898;2023-11-18T07:31:57;5.63;;;1.27;;
69207;SDS011;70114;47.690;8.898;2023-11-18T07:34:35;6.22;;;1.48;;
69207;SDS011;70114;47.690;8.898;2023-11-18T07:37:00;6.65;;;1.70;;
69207;SDS011;70114;47.690;8.898;2023-11-18T07:39:42;6.65;;;1.83;;
69207;SDS011;70114;47.690;8.898;2023-11-18T07:42:13;22.88;;;5.90;;
69207;SDS011;70114;47.690;8.898;2023-11-18T07:44:43;28.97;;;8.37;;
69207;SDS011;70114;47.690;8.898;2023-11-18T07:47:11;12.60;;;4.00;;
69207;SDS011;70114;47.690;8.898;2023-11-18T07:49:39;8.23;;;2.88;;
69207;SDS011;70114;47.690;8.898;2023-11-18T07:52:13;7.97;;;2.25;;
69207;SDS011;70114;47.690;8.898;2023-11-18T07:54:47;7.75;;;2.38;;
69207;SDS011;70114;47.690;8.898;2023-11-18T07:57:15;15.80;;;4.80;;
69207;SDS011;70114;47.690;8.898;2023-11-18T07:59:49;14.52;;;4.95;;
69207;SDS011;70114;47.690;8.898;2023-11-18T08:02:20;11.23;;;3.85;;
69207;SDS011;70114;47.690;8.898;2023-11-18T08:04:51;9.65;;;3.33;;
69207;SDS011;70114;47.690;8.898;2023-11-18T08:07:26;11.88;;;3.83;;
69207;SDS011;70114;47.690;8.898;2023-11-18T08:09:54;13.97;;;5.33;;
69207;SDS011;70114;47.690;8.898;2023-11-18T08:12:26;17.85;;;7.68;;
69207;SDS011;70114;47.690;8.898;2023-11-18T08:15:00;13.13;;;5.45;;
69207;SDS011;70114;47.690;8.898;2023-11-18T08:17:28;13.13;;;4.82;;
69207;SDS011;70114;47.690;8.898;2023-11-18T08:19:58;13.25;;;4.65;;
69207;SDS011;70114;47.690;8.898;2023-11-18T08:22:30;14.03;;;5.00;;
69207;SDS011;70114;47.690;8.898;2023-11-18T08:25:04;16.35;;;4.88;;
69207;SDS011;70114;47.690;8.898;2023-11-18T08:27:33;12.98;;;5.10;;
69207;SDS011;70114;47.690;8.898;2023-11-18T08:30:02;12.37;;;4.37;;
69207;SDS011;70114;47.690;8.898;2023-11-18T08:32:35;8.50;;;3.05;;
69207;SDS011;70114;47.690;8.898;2023-11-18T08:35:05;10.90;;;3.20;;
69207;SDS011;70114;47.690;8.898;2023-11-18T08:37:41;9.35;;;2.78;;
69207;SDS011;70114;47.690;8.898;2023-11-18T08:40:10;8.70;;;2.70;;
69207;SDS011;70114;47.690;8.898;2023-11-18T08:42:57;9.07;;;2.45;;
69207;SDS011;70114;47.690;8.898;2023-11-18T08:45:26;8.27;;;2.53;;
69207;SDS011;70114;47.690;8.898;2023-11-18T08:48:01;8.95;;;2.85;;
69207;SDS011;70114;47.690;8.898;2023-11-18T08:50:29;12.82;;;3.75;;
69207;SDS011;70114;47.690;8.898;2023-11-18T08:53:02;13.80;;;3.70;;
69207;SDS011;70114;47.690;8.898;2023-11-18T08:58:03;7.78;;;1.83;;
69207;SDS011;70114;47.690;8.898;2023-11-18T09:00:36;8.17;;;1.87;;
69207;SDS011;70114;47.690;8.898;2023-11-18T09:03:34;7.65;;;1.85;;
69207;SDS011;70114;47.690;8.898;2023-11-18T09:06:08;7.40;;;1.95;;
69207;SDS011;70114;47.690;8.898;2023-11-18T09:08:53;7.90;;;2.10;;
69207;SDS011;70114;47.690;8.898;2023-11-18T09:11:26;6.45;;;1.60;;
69207;SDS011;70114;47.690;8.898;2023-11-18T09:13:57;7.50;;;1.70;;
69207;SDS011;70114;47.690;8.898;2023-11-18T09:16:28;7.22;;;1.90;;
69207;SDS011;70114;47.690;8.898;2023-11-18T09:19:01;7.72;;;2.00;;
69207;SDS011;70114;47.690;8.898;2023-11-18T09:21:27;7.22;;;1.70;;
69207;SDS011;70114;47.690;8.898;2023-11-18T09:24:03;7.28;;;2.00;;
69207;SDS011;70114;47.690;8.898;2023-11-18T09:26:33;7.40;;;2.10;;
69207;SDS011;70114;47.690;8.898;2023-11-18T09:29:03;7.85;;;2.40;;
69207;SDS011;70114;47.690;8.898;2023-11-18T09:31:36;6.93;;;2.00;;
69207;SDS011;70114;47.690;8.898;2023-11-18T09:34:05;6.82;;;1.98;;
69207;SDS011;70114;47.690;8.898;2023-11-18T09:36:39;8.55;;;2.10;;
69207;SDS011;70114;47.690;8.898;2023-11-18T09:39:11;7.90;;;2.20;;
69207;SDS011;70114;47.690;8.898;2023-11-18T09:41:57;7.00;;;1.85;;
69207;SDS011;70114;47.690;8.898;2023-11-18T09:44:28;8.63;;;2.25;;
69207;SDS011;70114;47.690;8.898;2023-11-18T09:46:58;7.55;;;1.90;;
69207;SDS011;70114;47.690;8.898;2023-11-18T09:49:29;7.78;;;2.40;;
69207;SDS011;70114;47.690;8.898;2023-11-18T09:52:04;7.93;;;1.97;;
69207;SDS011;70114;47.690;8.898;2023-11-18T09:54:36;8.40;;;2.30;;
69207;SDS011;70114;47.690;8.898;2023-11-18T10:00:06;7.47;;;2.22;;
69207;SDS011;70114;47.690;8.898;2023-11-18T10:02:53;7.20;;;1.85;;
69207;SDS011;70114;47.690;8.898;2023-11-18T10:05:23;8.57;;;1.80;;
69207;SDS011;70114;47.690;8.898;2023-11-18T10:07:54;6.22;;;1.58;;
69207;SDS011;70114;47.690;8.898;2023-11-18T10:10:25;6.20;;;1.60;;
69207;SDS011;70114;47.690;8.898;2023-11-18T10:13:01;6.57;;;1.58;;
69207;SDS011;70114;47.690;8.898;2023-11-18T10:15:29;8.50;;;2.80;;
69207;SDS011;70114;47.690;8.898;2023-11-18T10:17:59;7.17;;;2.57;;
69207;SDS011;70114;47.690;8.898;2023-11-18T10:20:50;7.57;;;2.20;;
69207;SDS011;70114;47.690;8.898;2023-11-18T10:23:18;8.55;;;2.60;;
69207;SDS011;70114;47.690;8.898;2023-11-18T10:25:49;10.27;;;2.60;;
69207;SDS011;70114;47.690;8.898;2023-11-18T10:31:20;8.13;;;2.00;;
69207;SDS011;70114;47.690;8.898;2023-11-18T10:33:51;6.72;;;1.60;;
69207;SDS011;70114;47.690;8.898;2023-11-18T10:36:23;6.10;;;1.65;;
69207;SDS011;70114;47.690;8.898;2023-11-18T10:38:56;7.10;;;2.10;;
69207;SDS011;70114;47.690;8.898;2023-11-18T10:41:24;8.70;;;2.28;;
69207;SDS011;70114;47.690;8.898;2023-11-18T10:43:52;7.00;;;2.07;;
69207;SDS011;70114;47.690;8.898;2023-11-18T10:46:30;7.18;;;1.90;;
69207;SDS011;70114;47.690;8.898;2023-11-18T10:49:00;7.45;;;2.20;;
69207;SDS011;70114;47.690;8.898;2023-11-18T10:51:31;6.90;;;1.80;;
69207;SDS011;70114;47.690;8.898;2023-11-18T10:54:03;6.97;;;1.85;;
69207;SDS011;70114;47.690;8.898;2023-11-18T10:56:32;6.87;;;1.90;;
69207;SDS011;70114;47.690;8.898;2023-11-18T10:59:05;7.10;;;2.00;;
69207;SDS011;70114;47.690;8.898;2023-11-18T11:01:38;6.22;;;1.98;;
69207;SDS011;70114;47.690;8.898;2023-11-18T11:04:31;6.45;;;1.85;;
69207;SDS011;70114;47.690;8.898;2023-11-18T11:07:08;7.20;;;1.67;;
69207;SDS011;70114;47.690;8.898;2023-11-18T11:09:38;6.93;;;2.00;;
69207;SDS011;70114;47.690;8.898;2023-11-18T11:12:11;6.80;;;1.65;;
69207;SDS011;70114;47.690;8.898;2023-11-18T11:15:01;6.22;;;1.50;;
69207;SDS011;70114;47.690;8.898;2023-11-18T11:17:48;7.55;;;1.77;;
69207;SDS011;70114;47.690;8.898;2023-11-18T11:20:46;6.57;;;1.67;;
69207;SDS011;70114;47.690;8.898;2023-11-18T11:23:21;5.87;;;1.60;;
69207;SDS011;70114;47.690;8.898;2023-11-18T11:28:40;6.30;;;1.77;;
69207;SDS011;70114;47.690;8.898;2023-11-18T11:34:22;8.30;;;1.95;;
69207;SDS011;70114;47.690;8.898;2023-11-18T11:36:54;7.38;;;2.28;;
69207;SDS011;70114;47.690;8.898;2023-11-18T11:39:27;7.30;;;2.38;;
69207;SDS011;70114;47.690;8.898;2023-11-18T11:41:58;8.23;;;2.50;;
69207;SDS011;70114;47.690;8.898;2023-11-18T11:44:30;7.47;;;2.30;;
69207;SDS011;70114;47.690;8.898;2023-11-18T11:46:59;6.07;;;1.80;;
69207;SDS011;70114;47.690;8.898;2023-11-18T11:49:36;6.97;;;2.20;;
69207;SDS011;70114;47.690;8.898;2023-11-18T11:52:18;8.07;;;2.22;;
69207;SDS011;70114;47.690;8.898;2023-11-18T11:55:03;7.40;;;2.50;;
69207;SDS011;70114;47.690;8.898;2023-11-18T11:57:38;9.10;;;2.95;;
69207;SDS011;70114;47.690;8.898;2023-11-18T12:00:10;8.48;;;3.10;;
69207;SDS011;70114;47.690;8.898;2023-11-18T12:02:53;9.32;;;3.00;;
69207;SDS011;70114;47.690;8.898;2023-11-18T12:05:25;10.18;;;3.30;;
69207;SDS011;70114;47.690;8.898;2023-11-18T12:07:54;8.47;;;2.50;;
69207;SDS011;70114;47.690;8.898;2023-11-18T12:10:30;8.18;;;2.85;;
69207;SDS011;70114;47.690;8.898;2023-11-18T12:13:11;10.40;;;2.80;;
69207;SDS011;70114;47.690;8.898;2023-11-18T12:18:19;8.13;;;2.55;;
69207;SDS011;70114;47.690;8.898;2023-11-18T12:20:46;9.77;;;2.83;;
69207;SDS011;70114;47.690;8.898;2023-11-18T12:23:27;8.45;;;2.58;;
69207;SDS011;70114;47.690;8.898;2023-11-18T12:26:37;7.50;;;2.55;;
69207;SDS011;70114;47.690;8.898;2023-11-18T12:29:22;7.82;;;2.47;;
69207;SDS011;70114;47.690;8.898;2023-11-18T12:32:09;8.98;;;2.80;;
69207;SDS011;70114;47.690;8.898;2023-11-18T12:34:53;8.87;;;3.23;;
69207;SDS011;70114;47.690;8.898;2023-11-18T12:43:13;8.18;;;3.05;;
69207;SDS011;70114;47.690;8.898;2023-11-18T12:46:05;9.13;;;3.10;;
69207;SDS011;70114;47.690;8.898;2023-11-18T12:48:59;9.43;;;2.87;;
69207;SDS011;70114;47.690;8.898;2023-11-18T12:51:35;9.27;;;3.58;;
69207;SDS011;70114;47.690;8.898;2023-11-18T12:54:05;9.30;;;3.28;;
69207;SDS011;70114;47.690;8.898;2023-11-18T12:56:32;8.75;;;3.08;;
69207;SDS011;70114;47.690;8.898;2023-11-18T12:58:58;8.95;;;3.28;;
69207;SDS011;70114;47.690;8.898;2023-11-18T13:01:23;8.47;;;2.87;;
69207;SDS011;70114;47.690;8.898;2023-11-18T13:03:53;10.35;;;3.55;;
69207;SDS011;70114;47.690;8.898;2023-11-18T13:06:28;9.90;;;3.07;;
69207;SDS011;70114;47.690;8.898;2023-11-18T13:08:54;10.30;;;3.40;;
69207;SDS011;70114;47.690;8.898;2023-11-18T13:11:21;11.52;;;3.72;;
69207;SDS011;70114;47.690;8.898;2023-11-18T13:13:48;10.32;;;3.65;;
69207;SDS011;70114;47.690;8.898;2023-11-18T13:16:24;10.60;;;3.92;;
69207;SDS011;70114;47.690;8.898;2023-11-18T13:18:59;9.17;;;2.83;;
69207;SDS011;70114;47.690;8.898;2023-11-18T13:21:24;11.32;;;3.88;;
69207;SDS011;70114;47.690;8.898;2023-11-18T13:23:54;9.53;;;3.30;;
69207;SDS011;70114;47.690;8.898;2023-11-18T13:26:19;8.68;;;2.80;;
69207;SDS011;70114;47.690;8.898;2023-11-18T13:28:48;9.00;;;2.87;;
69207;SDS011;70114;47.690;8.898;2023-11-18T13:31:24;9.60;;;2.85;;
69207;SDS011;70114;47.690;8.898;2023-11-18T13:33:52;7.15;;;2.25;;
69207;SDS011;70114;47.690;8.898;2023-11-18T13:36:18;9.80;;;3.08;;
69207;SDS011;70114;47.690;8.898;2023-11-18T13:38:56;10.40;;;3.33;;
69207;SDS011;70114;47.690;8.898;2023-11-18T13:41:30;7.07;;;2.30;;
69207;SDS011;70114;47.690;8.898;2023-11-18T13:44:00;9.60;;;3.58;;
69207;SDS011;70114;47.690;8.898;2023-11-18T13:46:28;9.30;;;2.97;;
69207;SDS011;70114;47.690;8.898;2023-11-18T13:49:02;9.30;;;3.35;;
69207;SDS011;70114;47.690;8.898;2023-11-18T13:51:30;8.98;;;2.92;;
69207;SDS011;70114;47.690;8.898;2023-11-18T13:53:56;8.30;;;3.03;;
69207;SDS011;70114;47.690;8.898;2023-11-18T13:56:36;8.65;;;2.75;;
69207;SDS011;70114;47.690;8.898;2023-11-18T13:59:06;7.75;;;2.28;;
69207;SDS011;70114;47.690;8.898;2023-11-18T14:01:31;9.80;;;2.70;;
69207;SDS011;70114;47.690;8.898;2023-11-18T14:04:05;9.07;;;3.00;;
69207;SDS011;70114;47.690;8.898;2023-11-18T14:06:39;8.00;;;2.83;;
69207;SDS011;70114;47.690;8.898;2023-11-18T14:09:04;7.95;;;2.92;;
69207;SDS011;70114;47.690;8.898;2023-11-18T14:11:43;7.22;;;2.65;;
69207;SDS011;70114;47.690;8.898;2023-11-18T14:14:13;10.13;;;3.40;;
69207;SDS011;70114;47.690;8.898;2023-11-18T14:16:38;9.47;;;3.27;;
69207;SDS011;70114;47.690;8.898;2023-11-18T14:19:14;11.15;;;3.10;;
69207;SDS011;70114;47.690;8.898;2023-11-18T14:21:46;7.25;;;2.65;;
69207;SDS011;70114;47.690;8.898;2023-11-18T14:24:19;9.48;;;3.95;;
69207;SDS011;70114;47.690;8.898;2023-11-18T14:26:44;7.85;;;2.85;;
69207;SDS011;70114;47.690;8.898;2023-11-18T14:29:12;7.20;;;2.77;;
69207;SDS011;70114;47.690;8.898;2023-11-18T14:31:38;8.33;;;3.33;;
69207;SDS011;70114;47.690;8.898;2023-11-18T14:34:13;10.50;;;3.97;;
69207;SDS011;70114;47.690;8.898;2023-11-18T14:36:39;9.70;;;3.53;;
69207;SDS011;70114;47.690;8.898;2023-11-18T14:39:08;11.07;;;4.00;;
69207;SDS011;70114;47.690;8.898;2023-11-18T14:41:40;8.73;;;3.00;;
69207;SDS011;70114;47.690;8.898;2023-11-18T14:44:11;19.65;;;6.55;;
69207;SDS011;70114;47.690;8.898;2023-11-18T14:46:36;16.33;;;5.83;;
69207;SDS011;70114;47.690;8.898;2023-11-18T14:49:20;9.43;;;3.65;;
69207;SDS011;70114;47.690;8.898;2023-11-18T14:51:48;8.60;;;3.30;;
69207;SDS011;70114;47.690;8.898;2023-11-18T14:54:22;9.10;;;3.00;;
69207;SDS011;70114;47.690;8.898;2023-11-18T14:56:51;9.13;;;3.20;;
69207;SDS011;70114;47.690;8.898;2023-11-18T14:59:22;7.30;;;2.05;;
69207;SDS011;70114;47.690;8.898;2023-11-18T15:01:55;6.90;;;2.50;;
69207;SDS011;70114;47.690;8.898;2023-11-18T15:04:25;8.47;;;2.60;;
69207;SDS011;70114;47.690;8.898;2023-11-18T15:06:57;8.50;;;2.60;;
69207;SDS011;70114;47.690;8.898;2023-11-18T15:09:25;9.27;;;2.83;;
69207;SDS011;70114;47.690;8.898;2023-11-18T15:12:01;9.73;;;2.85;;
69207;SDS011;70114;47.690;8.898;2023-11-18T15:14:31;8.55;;;3.60;;
69207;SDS011;70114;47.690;8.898;2023-11-18T15:16:57;8.63;;;3.30;;
69207;SDS011;70114;47.690;8.898;2023-11-18T15:19:25;8.73;;;3.20;;
69207;SDS011;70114;47.690;8.898;2023-11-18T15:22:07;8.70;;;3.10;;
69207;SDS011;70114;47.690;8.898;2023-11-18T15:24:33;8.38;;;3.63;;
69207;SDS011;70114;47.690;8.898;2023-11-18T15:26:58;6.43;;;2.00;;
69207;SDS011;70114;47.690;8.898;2023-11-18T15:29:35;6.88;;;2.20;;
69207;SDS011;70114;47.690;8.898;2023-11-18T15:32:04;7.10;;;2.42;;
69207;SDS011;70114;47.690;8.898;2023-11-18T15:34:33;6.80;;;2.10;;
69207;SDS011;70114;47.690;8.898;2023-11-18T15:37:06;6.47;;;1.90;;
69207;SDS011;70114;47.690;8.898;2023-11-18T15:39:31;8.47;;;2.20;;